createdAt,value
2018-08-17T00:01:30.101Z,16.07
2018-08-17T00:07:02.060Z,16.01
2018-08-17T00:09:34.074Z,15.97
2018-08-17T00:12:06.095Z,15.99
2018-08-17T00:14:38.087Z,16.04
2018-08-17T00:17:10.077Z,16.00
2018-08-17T00:19:42.059Z,16.04
2018-08-17T00:22:14.076Z,16.04
2018-08-17T00:24:46.066Z,16.06
2018-08-17T00:27:18.046Z,16.06
2018-08-17T00:29:50.159Z,16.00
2018-08-17T00:32:22.132Z,15.95
2018-08-17T00:34:54.207Z,15.87
2018-08-17T00:37:26.159Z,15.78
2018-08-17T00:39:58.148Z,15.65
2018-08-17T00:42:30.133Z,15.66
2018-08-17T00:45:02.141Z,15.56
2018-08-17T00:47:34.124Z,15.58
2018-08-17T00:50:06.144Z,15.60
2018-08-17T00:52:38.116Z,15.63
2018-08-17T00:55:10.125Z,15.62
2018-08-17T00:57:42.250Z,15.65
2018-08-17T01:00:14.260Z,15.67
2018-08-17T01:02:46.239Z,15.60
2018-08-17T01:05:18.355Z,15.51
2018-08-17T01:07:50.356Z,15.36
2018-08-17T01:10:22.348Z,15.23
2018-08-17T01:12:56.427Z,15.17
2018-08-17T01:15:28.409Z,15.08
2018-08-17T01:18:00.395Z,15.07
2018-08-17T01:20:32.399Z,15.06
2018-08-17T01:23:04.442Z,15.07
2018-08-17T01:25:36.887Z,15.03
2018-08-17T01:28:09.551Z,14.97
2018-08-17T01:30:41.571Z,14.92
2018-08-17T01:33:13.558Z,14.96
2018-08-17T01:35:45.550Z,14.93
2018-08-17T01:38:17.542Z,14.97
2018-08-17T01:40:49.538Z,15.01
2018-08-17T01:43:28.354Z,15.02
2018-08-17T01:46:00.361Z,15.07
2018-08-17T01:48:32.371Z,15.04
2018-08-17T01:51:04.363Z,15.05
2018-08-17T01:53:36.321Z,14.91
2018-08-17T01:56:08.371Z,14.93
2018-08-17T01:58:40.363Z,14.90
2018-08-17T02:01:12.391Z,14.84
2018-08-17T02:03:44.403Z,14.80
2018-08-17T02:06:16.429Z,14.92
2018-08-17T02:08:48.420Z,14.86
2018-08-17T02:11:20.425Z,14.93
2018-08-17T02:13:52.420Z,14.86
2018-08-17T02:16:24.448Z,14.77
2018-08-17T02:18:56.440Z,14.72
2018-08-17T02:21:28.447Z,14.65
2018-08-17T02:24:03.584Z,14.64
2018-08-17T02:26:35.579Z,14.67
2018-08-17T02:29:07.598Z,14.55
2018-08-17T02:31:39.588Z,14.49
2018-08-17T02:34:11.589Z,14.41
2018-08-17T02:36:43.579Z,14.43
2018-08-17T02:39:15.593Z,14.41
2018-08-17T02:41:47.607Z,14.41
2018-08-17T02:44:19.599Z,14.55
2018-08-17T02:46:51.598Z,14.57
2018-08-17T02:49:25.679Z,14.56
2018-08-17T02:51:57.695Z,14.44
2018-08-17T02:54:29.667Z,14.40
2018-08-17T02:57:08.332Z,14.50
2018-08-17T02:59:40.367Z,14.43
2018-08-17T03:02:12.348Z,14.44
2018-08-17T03:04:51.003Z,14.40
2018-08-17T03:07:23.015Z,14.34
2018-08-17T03:09:54.984Z,14.21
2018-08-17T03:12:27.000Z,14.24
2018-08-17T03:14:59.016Z,14.26
2018-08-17T03:17:31.025Z,14.23
2018-08-17T03:20:03.483Z,14.13
2018-08-17T03:22:35.468Z,14.21
2018-08-17T03:25:07.493Z,14.19
2018-08-17T03:27:39.487Z,14.16
2018-08-17T03:30:11.447Z,14.13
2018-08-17T03:32:43.415Z,14.17
2018-08-17T03:35:15.402Z,14.19
2018-08-17T03:37:47.375Z,14.13
2018-08-17T03:40:19.351Z,14.06
2018-08-17T03:42:51.310Z,14.10
2018-08-17T03:45:23.358Z,14.01
2018-08-17T03:47:55.310Z,13.98
2018-08-17T03:50:27.274Z,14.00
2018-08-17T03:52:59.318Z,13.85
2018-08-17T03:55:31.298Z,13.78
2018-08-17T03:58:03.304Z,13.90
2018-08-17T04:00:35.275Z,13.91
2018-08-17T04:03:07.478Z,13.97
2018-08-17T04:05:39.470Z,14.05
2018-08-17T04:08:11.470Z,13.99
2018-08-17T04:10:43.487Z,14.04
2018-08-17T04:13:15.427Z,14.05
2018-08-17T04:15:47.382Z,14.10
2018-08-17T04:18:19.430Z,14.09
2018-08-17T04:20:51.400Z,14.13
2018-08-17T04:23:25.469Z,14.19
2018-08-17T04:25:57.442Z,14.19
2018-08-17T04:28:29.475Z,14.27
2018-08-17T04:31:01.471Z,14.20
2018-08-17T04:33:33.477Z,14.25
2018-08-17T04:36:05.478Z,14.48
2018-08-17T04:38:37.480Z,14.56
2018-08-17T04:41:09.642Z,14.62
2018-08-17T04:43:41.675Z,14.64
2018-08-17T04:46:13.628Z,14.75
2018-08-17T04:48:45.611Z,14.81
2018-08-17T04:51:17.599Z,14.87
2018-08-17T04:53:49.630Z,15.02
2018-08-17T04:56:21.634Z,15.08
2018-08-17T04:59:07.402Z,15.14
2018-08-17T05:01:39.399Z,15.18
2018-08-17T05:04:11.404Z,15.26
2018-08-17T05:06:43.412Z,15.35
2018-08-17T05:09:15.406Z,15.42
2018-08-17T05:11:47.401Z,15.46
2018-08-17T05:14:21.417Z,15.57
2018-08-17T05:16:53.410Z,15.69
2018-08-17T05:19:25.411Z,15.78
2018-08-17T05:21:57.412Z,15.90
2018-08-17T05:24:29.388Z,16.04
2018-08-17T05:27:01.367Z,16.99
2018-08-17T05:29:33.412Z,18.12
2018-08-17T05:32:05.745Z,19.55
2018-08-17T05:34:37.728Z,20.68
2018-08-17T05:37:09.782Z,21.50
2018-08-17T05:39:41.830Z,22.00
2018-08-17T05:44:52.553Z,22.93
2018-08-17T05:47:24.564Z,23.63
2018-08-17T05:49:56.567Z,23.52
2018-08-17T05:52:28.535Z,24.33
2018-08-17T05:55:00.522Z,24.80
2018-08-17T05:57:32.821Z,24.69
2018-08-17T06:00:06.659Z,25.38
2018-08-17T06:02:38.723Z,25.97
2018-08-17T06:05:10.782Z,25.33
2018-08-17T06:07:42.728Z,26.12
2018-08-17T06:10:14.754Z,27.06
2018-08-17T06:12:46.746Z,28.42
2018-08-17T06:15:18.798Z,27.59
2018-08-17T06:17:50.818Z,27.25
2018-08-17T06:20:22.815Z,27.53
2018-08-17T06:22:54.865Z,28.37
2018-08-17T06:25:26.898Z,29.07
2018-08-17T06:27:58.896Z,29.00
2018-08-17T06:30:31.000Z,29.86
2018-08-17T06:33:03.065Z,30.33
2018-08-17T06:35:35.123Z,29.63
2018-08-17T06:38:07.150Z,29.48
2018-08-17T06:40:39.171Z,30.21
2018-08-17T06:43:11.148Z,29.11
2018-08-17T06:45:43.237Z,29.09
2018-08-17T06:48:15.370Z,30.06
2018-08-17T06:50:47.449Z,30.00
2018-08-17T06:53:19.399Z,29.59
2018-08-17T06:55:51.415Z,30.89
2018-08-17T06:58:23.446Z,31.63
2018-08-17T07:00:55.492Z,31.16
2018-08-17T07:03:27.509Z,31.22
2018-08-17T07:05:59.579Z,31.92
2018-08-17T07:08:31.593Z,32.08
2018-08-17T07:11:03.660Z,31.24
2018-08-17T07:13:35.662Z,30.83
2018-08-17T07:16:07.705Z,31.45
2018-08-17T07:18:39.723Z,32.28
2018-08-17T07:21:11.728Z,32.45
2018-08-17T07:23:43.709Z,33.28
2018-08-17T07:26:15.696Z,33.88
2018-08-17T07:28:47.688Z,33.43
2018-08-17T07:31:19.677Z,33.65
2018-08-17T07:33:51.941Z,33.17
2018-08-17T07:36:23.958Z,33.70
2018-08-17T07:38:55.959Z,35.06
2018-08-17T07:41:27.934Z,35.34
2018-08-17T07:43:59.950Z,34.28
2018-08-17T07:46:31.962Z,34.74
2018-08-17T07:49:03.987Z,33.96
2018-08-17T07:51:36.044Z,35.15
2018-08-17T07:54:08.015Z,35.20
2018-08-17T07:56:40.047Z,35.87
2018-08-17T07:59:12.081Z,35.60
2018-08-17T08:01:44.071Z,36.29
2018-08-17T08:04:16.054Z,35.52
2018-08-17T08:06:48.099Z,33.95
2018-08-17T08:09:20.106Z,35.42
2018-08-17T08:11:52.070Z,34.92
2018-08-17T08:14:24.067Z,34.51
2018-08-17T08:16:56.151Z,34.01
2018-08-17T08:19:28.144Z,34.11
2018-08-17T08:22:00.171Z,35.02
2018-08-17T08:24:36.254Z,34.61
2018-08-17T08:27:08.339Z,35.23
2018-08-17T08:29:40.407Z,34.15
2018-08-17T08:32:12.433Z,34.78
2018-08-17T08:34:44.482Z,35.28
2018-08-17T08:37:16.466Z,35.94
2018-08-17T08:39:48.497Z,36.50
2018-08-17T08:43:23.862Z,36.92
2018-08-17T08:45:55.938Z,36.04
2018-08-17T08:48:27.898Z,35.27
2018-08-17T08:50:59.959Z,35.75
2018-08-17T08:53:31.978Z,36.13
2018-08-17T08:56:04.026Z,35.08
2018-08-17T08:58:36.068Z,35.08
2018-08-17T09:01:08.360Z,35.69
2018-08-17T09:03:40.347Z,35.24
2018-08-17T09:06:12.371Z,34.21
2018-08-17T09:08:44.666Z,34.33
2018-08-17T09:11:16.679Z,33.56
2018-08-17T09:13:48.720Z,33.28
2018-08-17T09:16:21.068Z,33.79
2018-08-17T09:18:53.099Z,32.81
2018-08-17T09:21:25.086Z,33.08
2018-08-17T09:23:57.100Z,33.89
2018-08-17T09:26:29.296Z,34.68
2018-08-17T09:29:01.247Z,34.79
2018-08-17T09:31:33.259Z,35.22
2018-08-17T09:34:05.226Z,34.99
2018-08-17T09:36:37.187Z,33.89
2018-08-17T09:39:09.649Z,34.23
2018-08-17T09:41:41.713Z,34.55
2018-08-17T09:44:13.642Z,34.82
2018-08-17T09:46:45.645Z,33.40
2018-08-17T09:49:17.631Z,33.59
2018-08-17T09:51:49.574Z,34.63
2018-08-17T09:54:21.549Z,33.90
2018-08-17T09:56:53.555Z,33.66
2018-08-17T09:59:25.588Z,33.27
2018-08-17T10:03:01.736Z,34.01
2018-08-17T10:05:42.084Z,33.02
2018-08-17T10:08:20.184Z,33.33
2018-08-17T10:10:52.141Z,34.15
2018-08-17T10:13:24.146Z,34.81
2018-08-17T10:15:56.112Z,34.39
2018-08-17T10:18:34.686Z,34.61
2018-08-17T10:21:06.826Z,33.90
2018-08-17T10:23:38.805Z,34.61
2018-08-17T10:26:10.787Z,35.19
2018-08-17T10:28:42.772Z,35.06
2018-08-17T10:31:16.635Z,35.60
2018-08-17T10:33:48.808Z,35.21
2018-08-17T10:36:20.857Z,35.92
2018-08-17T10:38:52.902Z,35.73
2018-08-17T10:41:25.034Z,35.98
2018-08-17T10:43:57.200Z,36.27
2018-08-17T10:46:29.177Z,36.17
2018-08-17T10:49:01.357Z,35.76
2018-08-17T10:51:33.236Z,34.15
2018-08-17T10:54:05.317Z,34.31
2018-08-17T10:56:37.330Z,34.50
2018-08-17T10:59:09.321Z,35.41
2018-08-17T11:01:42.243Z,35.87
2018-08-17T11:04:14.294Z,36.09
2018-08-17T11:06:46.360Z,35.68
2018-08-17T11:09:18.406Z,35.75
2018-08-17T11:11:50.395Z,36.01
2018-08-17T11:14:23.047Z,36.08
2018-08-17T11:16:55.063Z,35.95
2018-08-17T11:19:27.075Z,35.73
2018-08-17T11:21:59.084Z,36.38
2018-08-17T11:24:31.900Z,36.23
2018-08-17T11:27:03.925Z,35.39
2018-08-17T11:29:35.943Z,36.30
2018-08-17T11:32:08.068Z,36.32
2018-08-17T11:34:40.060Z,36.29
2018-08-17T11:37:12.047Z,36.18
2018-08-17T11:39:48.639Z,36.05
2018-08-17T11:42:20.644Z,36.15
2018-08-17T11:44:52.662Z,36.39
2018-08-17T11:47:24.719Z,36.13
2018-08-17T11:49:57.142Z,36.43
2018-08-17T11:52:31.387Z,36.15
2018-08-17T11:55:03.394Z,35.75
2018-08-17T11:57:35.414Z,35.33
2018-08-17T12:00:07.526Z,35.90
2018-08-17T12:02:39.560Z,36.05
2018-08-17T12:05:11.698Z,36.10
2018-08-17T12:07:44.647Z,36.38
2018-08-17T12:10:18.007Z,35.65
2018-08-17T12:12:50.182Z,35.73
2018-08-17T12:15:22.698Z,35.22
2018-08-17T12:17:55.009Z,34.71
2018-08-17T12:20:27.382Z,34.55
2018-08-17T12:22:59.399Z,33.51
2018-08-17T12:25:32.684Z,33.72
2018-08-17T12:28:04.713Z,35.15
2018-08-17T12:30:36.706Z,36.58
2018-08-17T12:33:10.315Z,34.66
2018-08-17T12:35:42.320Z,36.59
2018-08-17T12:38:16.419Z,37.68
2018-08-17T12:40:51.037Z,38.08
2018-08-17T12:43:27.823Z,38.05
2018-08-17T12:45:59.843Z,37.70
2018-08-17T12:48:31.883Z,36.76
2018-08-17T12:51:05.098Z,38.72
2018-08-17T12:53:37.099Z,38.13
2018-08-17T12:56:09.100Z,38.92
2018-08-17T12:58:41.207Z,40.01
2018-08-17T13:01:13.227Z,39.59
2018-08-17T13:03:46.117Z,39.81
2018-08-17T13:06:18.240Z,39.02
2018-08-17T13:08:50.398Z,39.50
2018-08-17T13:11:22.367Z,39.61
2018-08-17T13:13:57.630Z,39.39
2018-08-17T13:16:29.635Z,40.60
2018-08-17T13:19:01.699Z,39.36
2018-08-17T13:21:33.810Z,38.45
2018-08-17T13:24:05.838Z,38.46
2018-08-17T13:26:37.903Z,38.86
2018-08-17T13:29:09.980Z,40.12
2018-08-17T13:31:41.983Z,39.59
2018-08-17T13:34:14.015Z,39.64
2018-08-17T13:36:46.071Z,38.40
2018-08-17T13:39:18.088Z,37.07
2018-08-17T13:41:50.186Z,38.50
2018-08-17T13:44:22.169Z,39.09
2018-08-17T13:46:54.200Z,39.92
2018-08-17T13:49:26.176Z,40.82
2018-08-17T13:51:58.166Z,38.63
2018-08-17T13:54:36.861Z,40.52
2018-08-17T13:57:08.865Z,38.65
2018-08-17T13:59:40.887Z,37.29
2018-08-17T14:02:12.946Z,37.67
2018-08-17T14:04:44.951Z,39.17
2018-08-17T14:07:17.000Z,38.53
2018-08-17T14:09:48.998Z,39.27
2018-08-17T14:12:20.997Z,39.48
2018-08-17T14:14:53.023Z,38.28
2018-08-17T14:17:24.998Z,37.52
2018-08-17T14:19:57.009Z,37.64
2018-08-17T14:22:28.986Z,37.90
2018-08-17T14:25:01.029Z,38.67
2018-08-17T14:27:33.051Z,38.49
2018-08-17T14:30:11.611Z,39.27
2018-08-17T14:32:43.758Z,39.25
2018-08-17T14:35:15.842Z,40.37
2018-08-17T14:37:47.772Z,40.74
2018-08-17T14:40:19.872Z,40.83
2018-08-17T14:42:51.863Z,40.51
2018-08-17T14:45:23.874Z,39.85
2018-08-17T14:47:55.932Z,39.22
2018-08-17T14:50:27.985Z,39.39
2018-08-17T14:53:00.008Z,39.85
2018-08-17T14:55:32.006Z,39.50
2018-08-17T14:58:04.074Z,39.54
2018-08-17T15:00:36.059Z,40.54
2018-08-17T15:03:08.120Z,40.26
2018-08-17T15:05:40.133Z,39.66
2018-08-17T15:08:12.144Z,40.02
2018-08-17T15:10:44.159Z,38.51
2018-08-17T15:13:16.179Z,39.03
2018-08-17T15:15:48.206Z,38.35
2018-08-17T15:18:21.029Z,39.75
2018-08-17T15:20:53.034Z,40.37
2018-08-17T15:23:25.047Z,40.73
2018-08-17T15:25:57.080Z,40.05
2018-08-17T15:28:29.104Z,40.63
2018-08-17T15:31:01.141Z,41.42
2018-08-17T15:33:33.140Z,40.26
2018-08-17T15:36:05.201Z,39.31
2018-08-17T15:38:37.184Z,39.88
2018-08-17T15:41:09.593Z,39.38
2018-08-17T15:43:41.604Z,38.82
2018-08-17T15:46:13.723Z,38.94
2018-08-17T15:48:52.207Z,38.48
2018-08-17T15:51:24.222Z,36.40
2018-08-17T15:53:56.440Z,35.32
2018-08-17T15:56:28.499Z,34.54
2018-08-17T15:59:00.547Z,34.57
2018-08-17T16:01:32.686Z,34.37
2018-08-17T16:04:04.622Z,34.89
2018-08-17T16:06:36.737Z,35.54
2018-08-17T16:09:10.279Z,35.59
2018-08-17T16:11:42.356Z,34.96
2018-08-17T16:14:14.406Z,35.03
2018-08-17T16:16:46.393Z,34.36
2018-08-17T16:19:18.476Z,33.51
2018-08-17T16:21:50.686Z,33.67
2018-08-17T16:24:22.700Z,33.84
2018-08-17T16:26:54.663Z,33.25
2018-08-17T16:29:26.816Z,33.09
2018-08-17T16:31:58.886Z,33.10
2018-08-17T16:34:30.856Z,32.63
2018-08-17T16:37:02.891Z,31.88
2018-08-17T16:39:40.311Z,31.88
2018-08-17T16:42:19.031Z,31.73
2018-08-17T16:44:51.069Z,31.34
2018-08-17T16:47:23.094Z,31.34
2018-08-17T16:49:55.277Z,30.96
2018-08-17T16:52:27.276Z,30.93
2018-08-17T16:54:59.311Z,30.85
2018-08-17T16:57:31.344Z,30.62
2018-08-17T17:00:04.698Z,30.64
2018-08-17T17:02:36.720Z,30.50
2018-08-17T17:05:08.775Z,30.28
2018-08-17T17:07:40.779Z,30.26
2018-08-17T17:10:12.764Z,30.09
2018-08-17T17:12:44.751Z,29.87
2018-08-17T17:15:19.951Z,29.74
2018-08-17T17:17:57.865Z,29.67
2018-08-17T17:20:33.682Z,29.58
2018-08-17T17:23:06.980Z,29.41
2018-08-17T17:25:39.265Z,29.32
2018-08-17T17:28:11.294Z,29.32
2018-08-17T17:30:49.212Z,29.33
2018-08-17T17:33:21.720Z,29.16
2018-08-17T17:35:53.796Z,29.00
2018-08-17T17:38:25.901Z,28.89
2018-08-17T17:40:58.962Z,28.85
2018-08-17T17:43:31.115Z,28.73
2018-08-17T17:46:03.224Z,28.54
2018-08-17T17:48:35.235Z,28.38
2018-08-17T17:51:07.258Z,28.17
2018-08-17T17:53:39.286Z,28.05
2018-08-17T17:56:11.341Z,27.96
2018-08-17T17:58:43.446Z,27.85
2018-08-17T18:01:15.471Z,27.61
2018-08-17T18:03:47.556Z,27.45
2018-08-17T18:06:19.659Z,27.34
2018-08-17T18:08:51.785Z,27.19
2018-08-17T18:11:24.027Z,27.06
2018-08-17T18:13:56.090Z,26.95
2018-08-17T18:16:28.150Z,26.84
2018-08-17T18:19:00.231Z,26.72
2018-08-17T18:21:33.071Z,26.53
2018-08-17T18:24:11.764Z,26.43
2018-08-17T18:26:49.094Z,26.26
2018-08-17T18:29:21.122Z,26.13
2018-08-17T18:31:53.163Z,26.02
2018-08-17T18:34:25.195Z,25.99
2018-08-17T18:36:57.228Z,26.05
2018-08-17T18:39:29.308Z,25.96
2018-08-17T18:42:01.317Z,25.81
2018-08-17T18:44:33.334Z,25.67
2018-08-17T18:47:05.306Z,25.55
2018-08-17T18:49:37.387Z,25.44
2018-08-17T18:52:09.383Z,25.36
2018-08-17T18:54:41.445Z,25.26
2018-08-17T18:57:13.494Z,24.99
2018-08-17T18:59:45.530Z,24.71
2018-08-17T19:02:17.542Z,24.48
2018-08-17T19:04:49.691Z,24.37
2018-08-17T19:07:21.701Z,24.14
2018-08-17T19:09:53.736Z,23.94
2018-08-17T19:12:25.722Z,23.79
2018-08-17T19:14:57.815Z,23.62
2018-08-17T19:17:33.123Z,23.67
2018-08-17T19:20:07.815Z,23.55
2018-08-17T19:22:45.197Z,23.42
2018-08-17T19:25:17.245Z,23.43
2018-08-17T19:27:49.266Z,23.44
2018-08-17T19:30:26.947Z,23.34
2018-08-17T19:33:03.274Z,23.32
2018-08-17T19:35:35.331Z,23.24
2018-08-17T19:38:07.367Z,23.09
2018-08-17T19:40:39.386Z,22.98
2018-08-17T19:43:11.431Z,22.81
2018-08-17T19:45:43.551Z,22.89
2018-08-17T19:48:15.567Z,22.83
2018-08-17T19:50:47.597Z,22.72
2018-08-17T19:53:19.654Z,22.65
2018-08-17T19:55:51.710Z,22.67
2018-08-17T19:58:23.825Z,22.62
2018-08-17T20:00:55.813Z,22.48
2018-08-17T20:03:27.810Z,22.43
2018-08-17T20:05:59.912Z,22.38
2018-08-17T20:08:31.981Z,22.55
2018-08-17T20:11:04.091Z,22.46
2018-08-17T20:13:36.119Z,22.59
2018-08-17T20:16:16.511Z,22.69
2018-08-17T20:18:48.833Z,22.56
2018-08-17T20:21:22.157Z,22.49
2018-08-17T20:23:54.247Z,22.45
2018-08-17T20:26:26.552Z,22.25
2018-08-17T20:28:58.321Z,22.11
2018-08-17T20:31:30.435Z,22.15
2018-08-17T20:35:05.779Z,22.01
2018-08-17T20:37:47.128Z,21.88
2018-08-17T20:40:19.532Z,21.66
2018-08-17T20:42:51.586Z,21.46
2018-08-17T20:45:25.632Z,21.36
2018-08-17T20:47:57.680Z,21.60
2018-08-17T20:50:29.696Z,21.61
2018-08-17T20:53:01.715Z,21.61
2018-08-17T20:55:33.720Z,21.53
2018-08-17T20:58:05.806Z,21.38
2018-08-17T21:00:37.886Z,21.21
2018-08-17T21:03:09.819Z,21.17
2018-08-17T21:05:41.810Z,21.12
2018-08-17T21:08:13.816Z,20.95
2018-08-17T21:10:45.840Z,20.93
2018-08-17T21:13:17.846Z,21.08
2018-08-17T21:15:49.854Z,21.28
2018-08-17T21:18:21.856Z,21.39
2018-08-17T21:20:53.937Z,21.49
2018-08-17T21:23:25.935Z,21.53
2018-08-17T21:25:57.919Z,21.56
2018-08-17T21:28:30.361Z,21.52
2018-08-17T21:31:02.440Z,21.47
2018-08-17T21:33:35.037Z,21.21
2018-08-17T21:36:14.179Z,21.04
2018-08-17T21:39:01.037Z,20.92
2018-08-17T21:41:33.114Z,20.73
2018-08-17T21:44:06.938Z,20.62
2018-08-17T21:46:40.427Z,20.69
2018-08-17T21:49:12.430Z,20.74
2018-08-17T21:51:44.393Z,20.80
2018-08-17T21:54:18.255Z,20.77
2018-08-17T21:56:50.365Z,20.80
2018-08-17T21:59:22.312Z,20.80
2018-08-17T22:01:54.334Z,20.78
2018-08-17T22:04:26.331Z,20.86
2018-08-17T22:07:00.562Z,20.81
2018-08-17T22:09:39.686Z,20.82
2018-08-17T22:12:12.553Z,20.72
2018-08-17T22:14:46.275Z,20.60
2018-08-17T22:17:31.141Z,20.48
2018-08-17T22:20:04.089Z,20.36
2018-08-17T22:22:36.199Z,20.34
2018-08-17T22:25:12.334Z,20.35
2018-08-17T22:27:44.359Z,20.36
2018-08-17T22:30:20.228Z,20.36
2018-08-17T22:32:52.187Z,20.32
2018-08-17T22:35:24.303Z,20.29
2018-08-17T22:37:56.222Z,20.28
2018-08-17T22:40:28.620Z,20.17
2018-08-17T22:43:00.644Z,20.01
2018-08-17T22:45:32.699Z,19.92
2018-08-17T22:48:04.914Z,19.98
2018-08-17T22:50:36.873Z,20.30
2018-08-17T22:53:12.365Z,20.25
2018-08-17T22:55:44.506Z,20.21
2018-08-17T22:58:16.713Z,20.06
2018-08-17T23:00:48.707Z,19.98
2018-08-17T23:03:20.719Z,20.02
2018-08-17T23:05:52.803Z,20.05
2018-08-17T23:08:24.852Z,20.15
2018-08-17T23:10:56.880Z,20.19
2018-08-17T23:13:28.886Z,20.28
2018-08-17T23:16:00.928Z,20.25
2018-08-17T23:18:33.148Z,20.33
2018-08-17T23:21:05.159Z,20.25
2018-08-17T23:23:37.203Z,20.20
2018-08-17T23:26:09.272Z,20.11
2018-08-17T23:28:41.297Z,20.05
2018-08-17T23:31:13.326Z,20.06
2018-08-17T23:33:45.311Z,20.06
2018-08-17T23:36:17.391Z,20.07
2018-08-17T23:38:49.425Z,20.08
2018-08-17T23:41:21.510Z,20.00
2018-08-17T23:43:53.447Z,20.03
2018-08-17T23:46:25.479Z,20.16
2018-08-17T23:48:57.480Z,20.15
2018-08-17T23:51:29.634Z,20.16
2018-08-17T23:54:01.671Z,20.07
2018-08-17T23:56:33.728Z,20.12
2018-08-17T23:59:05.744Z,20.19
